Time;durP1;ratioP1;P1;durP2;ratioP2;P2;SDS_P1;SDS_P2;PMS_P1;PMS_P2;Temp;Humidity;BMP_temperature;BMP_pressure;BME280_temperature;BME280_humidity;BME280_pressure;Samples;Min_cycle;Max_cycle;Signal;HPM_P1;HPM_P2
2022/01/02 00:00:22;;;;;;;5.05;2.38;;;10.40;93.00;;;;;;4947069;29;20039;-88
2022/01/02 00:03:09;;;;;;;7.90;2.45;;;10.50;92.90;;;;;;4946356;28;20067;-88
2022/01/02 00:05:40;;;;;;;7.63;2.58;;;10.40;92.90;;;;;;4942637;28;20027;-87
2022/01/02 00:08:09;;;;;;;;;;;10.40;92.80;;;;;;4949118;28;20361;-88
2022/01/02 00:10:59;;;;;;;8.13;2.78;;;10.40;92.60;;;;;;4961405;28;19921;-89
2022/01/02 00:13:35;;;;;;;6.68;2.85;;;10.40;93.00;;;;;;4949711;29;20033;-88
2022/01/02 00:16:06;;;;;;;8.13;3.08;;;10.30;93.10;;;;;;4947232;28;20043;-88
2022/01/02 00:18:36;;;;;;;6.38;2.65;;;10.30;93.10;;;;;;4942261;29;20058;-88
2022/01/02 00:21:06;;;;;;;10.23;3.17;;;10.40;92.90;;;;;;4949605;29;20027;-88
2022/01/02 00:23:41;;;;;;;9.63;3.17;;;10.30;93.00;;;;;;4943952;28;20042;-87
2022/01/02 00:26:15;;;;;;;5.40;2.67;;;10.40;92.90;;;;;;4948540;28;20271;-85
2022/01/02 00:28:42;;;;;;;6.40;2.70;;;10.30;93.20;;;;;;4946538;29;20066;-88
2022/01/02 00:31:15;;;;;;;8.02;2.90;;;10.30;93.20;;;;;;4944009;28;20034;-88
2022/01/02 00:33:51;;;;;;;7.85;3.13;;;10.30;93.10;;;;;;4948580;29;20027;-89
2022/01/02 00:36:16;;;;;;;5.47;2.90;;;10.30;93.30;;;;;;4938273;28;20110;-89
2022/01/02 00:38:42;;;;;;;6.75;2.92;;;10.30;93.00;;;;;;4942237;28;20114;-87
2022/01/02 00:41:08;;;;;;;7.78;2.80;;;10.30;93.00;;;;;;4947228;28;20031;-87
2022/01/02 00:44:17;;;;;;;7.40;2.85;;;10.30;93.20;;;;;;4943512;28;20122;-87
2022/01/02 00:47:06;;;;;;;4.90;3.03;;;10.30;93.10;;;;;;4944845;29;20384;-87
2022/01/02 00:49:38;;;;;;;7.13;2.83;;;10.30;93.00;;;;;;4945125;28;20405;-87
2022/01/02 00:52:08;;;;;;;7.53;2.88;;;10.30;93.20;;;;;;4944781;28;20101;-87
2022/01/02 00:54:39;;;;;;;7.15;3.13;;;10.30;93.10;;;;;;4937128;28;20086;-87
2022/01/02 00:57:12;;;;;;;7.65;3.10;;;10.30;93.00;;;;;;4964693;28;20038;-87
2022/01/02 00:59:46;;;;;;;5.45;3.10;;;10.30;93.10;;;;;;4960108;28;20515;-87
2022/01/02 01:02:16;;;;;;;7.80;3.50;;;10.30;93.10;;;;;;4948931;29;20028;-87
2022/01/02 01:04:44;;;;;;;7.88;3.55;;;10.30;92.80;;;;;;4942509;28;20030;-87
2022/01/02 01:07:10;;;;;;;9.32;3.88;;;10.30;92.70;;;;;;4949767;28;20027;-87
2022/01/02 01:09:35;;;;;;;8.07;2.97;;;10.30;93.00;;;;;;4948533;28;20518;-87
2022/01/02 01:12:03;;;;;;;6.38;3.25;;;10.30;92.80;;;;;;4949787;28;20031;-87
2022/01/02 01:14:30;;;;;;;7.45;3.22;;;10.30;93.00;;;;;;4945805;28;20495;-87
2022/01/02 01:16:57;;;;;;;8.55;3.25;;;10.30;92.70;;;;;;4943923;28;20034;-87
2022/01/02 01:19:23;;;;;;;7.13;3.03;;;10.30;92.80;;;;;;4943698;29;20114;-87
2022/01/02 01:21:50;;;;;;;9.82;3.45;;;10.30;92.70;;;;;;4948696;28;20035;-87
2022/01/02 01:24:16;;;;;;;7.55;3.25;;;10.30;92.90;;;;;;4947157;28;20027;-87
2022/01/02 01:26:43;;;;;;;6.88;3.15;;;10.20;92.90;;;;;;4953153;29;20031;-87
2022/01/02 01:29:09;;;;;;;7.30;3.28;;;10.20;93.00;;;;;;4952135;28;20078;-87
2022/01/02 01:31:34;;;;;;;7.60;3.20;;;10.20;92.90;;;;;;4950877;28;20039;-87
2022/01/02 01:34:00;;;;;;;9.55;3.75;;;10.20;92.80;;;;;;4949722;28;20057;-87
2022/01/02 01:36:27;;;;;;;6.78;3.47;;;10.30;92.80;;;;;;4946455;29;20039;-87
2022/01/02 01:38:53;;;;;;;7.97;3.47;;;10.20;93.00;;;;;;4948031;28;20042;-87
2022/01/02 01:41:28;;;;;;;5.53;2.92;;;10.10;93.30;;;;;;4952295;29;20023;-87
2022/01/02 01:44:07;;;;;;;6.88;3.22;;;10.20;93.00;;;;;;4967692;28;20015;-87
2022/01/02 01:46:35;;;;;;;9.07;3.53;;;10.20;93.10;;;;;;4949021;29;20023;-87
2022/01/02 01:49:00;;;;;;;7.35;3.17;;;10.20;92.90;;;;;;4947938;28;20035;-87
2022/01/02 01:51:26;;;;;;;6.72;3.53;;;10.20;93.00;;;;;;4948651;28;20023;-87
2022/01/02 01:53:51;;;;;;;5.90;3.50;;;10.30;93.00;;;;;;4961857;28;20143;-87
2022/01/02 01:56:17;;;;;;;7.15;3.42;;;10.20;93.10;;;;;;4952700;28;20062;-87
2022/01/02 01:58:44;;;;;;;5.80;3.83;;;10.20;93.30;;;;;;4951359;28;20034;-87
2022/01/02 02:01:09;;;;;;;6.47;3.28;;;10.20;93.60;;;;;;4949541;29;20037;-87
2022/01/02 02:03:35;;;;;;;8.35;3.83;;;10.10;93.90;;;;;;4948867;29;20031;-87
2022/01/02 02:06:01;;;;;;;8.68;4.07;;;10.10;94.30;;;;;;4949006;28;20102;-87
2022/01/02 02:08:27;;;;;;;10.18;4.22;;;10.00;94.70;;;;;;4950322;28;20027;-87
2022/01/02 02:10:57;;;;;;;8.88;4.43;;;9.90;95.20;;;;;;4951368;28;20023;-87
2022/01/02 02:13:24;;;;;;;9.27;4.63;;;9.90;95.30;;;;;;4949666;29;20365;-87
2022/01/02 02:15:51;;;;;;;10.15;4.35;;;9.80;95.70;;;;;;4948224;28;20046;-87
2022/01/02 02:18:17;;;;;;;9.93;4.70;;;9.80;96.00;;;;;;4951010;28;20036;-87
2022/01/02 02:20:43;;;;;;;9.73;5.47;;;9.70;96.20;;;;;;4950706;28;20114;-87
2022/01/02 02:23:13;;;;;;;12.10;4.85;;;9.70;96.30;;;;;;4947335;28;20179;-87
2022/01/02 02:25:39;;;;;;;10.10;5.53;;;9.60;96.50;;;;;;4949133;28;20073;-87
2022/01/02 02:28:09;;;;;;;11.27;5.10;;;9.60;96.60;;;;;;4951691;28;20032;-87
2022/01/02 02:30:36;;;;;;;10.50;5.97;;;9.60;96.70;;;;;;4947359;28;20035;-87
2022/01/02 02:33:04;;;;;;;12.45;5.78;;;9.60;96.80;;;;;;4951759;28;20028;-87
2022/01/02 02:35:32;;;;;;;11.95;5.82;;;9.50;96.90;;;;;;4948609;28;20062;-87
2022/01/02 02:37:58;;;;;;;11.40;5.82;;;9.50;97.00;;;;;;4948367;28;20484;-87
2022/01/02 02:40:27;;;;;;;13.93;5.72;;;9.60;97.10;;;;;;4949117;28;20039;-87
2022/01/02 02:42:57;;;;;;;15.32;6.38;;;9.60;97.10;;;;;;4963454;28;20050;-87
2022/01/02 02:51:13;;;;;;;10.98;5.85;;;9.50;97.30;;;;;;4950605;29;20542;-87
2022/01/02 02:53:41;;;;;;;14.68;6.75;;;9.50;97.40;;;;;;4946626;28;20027;-87
2022/01/02 02:56:20;;;;;;;10.80;6.18;;;9.60;97.40;;;;;;4947855;29;20083;-87
2022/01/02 02:58:49;;;;;;;15.10;6.70;;;9.50;97.40;;;;;;4962049;28;20031;-86
2022/01/02 03:01:20;;;;;;;11.38;6.38;;;9.50;97.40;;;;;;4947482;28;20028;-87
2022/01/02 03:03:47;;;;;;;16.00;6.47;;;9.50;97.60;;;;;;4948362;29;20059;-87
2022/01/02 03:06:14;;;;;;;12.88;5.88;;;9.50;97.50;;;;;;4949293;29;20024;-87
2022/01/02 03:08:42;;;;;;;11.32;6.78;;;9.50;97.60;;;;;;4944897;28;20071;-87
2022/01/02 03:11:12;;;;;;;12.43;6.20;;;9.50;97.60;;;;;;4948209;29;20028;-87
2022/01/02 03:13:38;;;;;;;14.05;6.32;;;9.50;97.70;;;;;;4962877;28;20082;-87
2022/01/02 03:16:04;;;;;;;13.60;6.75;;;9.50;97.70;;;;;;4944833;28;20031;-87
2022/01/02 03:18:29;;;;;;;14.38;6.55;;;9.50;97.70;;;;;;4946271;28;20023;-87
2022/01/02 03:20:55;;;;;;;14.85;6.63;;;9.50;97.80;;;;;;4948184;28;20035;-87
2022/01/02 03:23:21;;;;;;;13.50;7.22;;;9.50;97.80;;;;;;4947571;28;20126;-86
2022/01/02 03:25:46;;;;;;;15.70;6.75;;;9.50;97.80;;;;;;4942973;28;20195;-87
2022/01/02 03:28:12;;;;;;;12.85;6.60;;;9.40;97.80;;;;;;4950787;28;20119;-87
2022/01/02 03:30:38;;;;;;;12.32;6.88;;;9.40;97.80;;;;;;4944034;29;20403;-87
2022/01/02 03:33:03;;;;;;;13.40;7.25;;;9.40;97.90;;;;;;4949473;29;20047;-87
2022/01/02 03:35:29;;;;;;;15.85;7.38;;;9.50;97.90;;;;;;4943267;28;20038;-87
2022/01/02 03:37:55;;;;;;;14.85;7.13;;;9.50;97.90;;;;;;4949586;28;20043;-87
2022/01/02 03:40:21;;;;;;;13.73;7.28;;;9.50;97.90;;;;;;4950239;29;20031;-87
2022/01/02 03:42:48;;;;;;;15.23;6.82;;;9.50;97.90;;;;;;4947197;28;20058;-88
2022/01/02 03:45:14;;;;;;;12.68;6.82;;;9.50;97.90;;;;;;4946746;28;20023;-87
2022/01/02 03:47:39;;;;;;;13.00;7.15;;;9.50;97.90;;;;;;4948777;28;20055;-87
2022/01/02 03:50:06;;;;;;;14.82;6.65;;;9.50;97.90;;;;;;4948693;29;20050;-87
2022/01/02 03:52:31;;;;;;;12.77;6.70;;;9.60;97.90;;;;;;4948579;29;20031;-87
2022/01/02 03:54:58;;;;;;;18.85;7.20;;;9.50;97.90;;;;;;4942851;28;20498;-87
2022/01/02 03:57:24;;;;;;;14.60;6.45;;;9.60;97.90;;;;;;4947119;28;20031;-87
2022/01/02 03:59:49;;;;;;;12.02;7.22;;;9.60;97.90;;;;;;4948461;28;20031;-87
2022/01/02 04:02:15;;;;;;;12.10;7.38;;;9.60;97.90;;;;;;4950181;28;20490;-87
2022/01/02 04:04:41;;;;;;;13.00;7.30;;;9.50;97.90;;;;;;4946820;29;20028;-87
2022/01/02 04:07:06;;;;;;;13.35;6.95;;;9.60;97.90;;;;;;4951601;28;20094;-87
2022/01/02 04:09:32;;;;;;;15.18;7.93;;;9.60;97.90;;;;;;4949086;28;20086;-87
2022/01/02 04:11:57;;;;;;;14.48;7.50;;;9.50;97.90;;;;;;4950574;28;20039;-87
2022/01/02 04:14:23;;;;;;;16.52;8.07;;;9.60;97.90;;;;;;4948759;28;20476;-87
2022/01/02 04:16:49;;;;;;;15.23;7.57;;;9.60;97.90;;;;;;4960989;28;20028;-87
2022/01/02 04:19:14;;;;;;;16.90;7.63;;;9.60;97.90;;;;;;4947407;29;20038;-87
2022/01/02 04:21:40;;;;;;;13.00;7.32;;;9.50;98.00;;;;;;4949110;29;20298;-87
2022/01/02 04:24:06;;;;;;;18.13;8.40;;;9.50;98.00;;;;;;4947518;29;20090;-87
2022/01/02 04:26:31;;;;;;;13.55;7.72;;;9.50;98.00;;;;;;4946166;29;20031;-87
2022/01/02 04:28:57;;;;;;;13.98;7.40;;;9.60;98.00;;;;;;4948177;28;20538;-87
2022/01/02 04:31:23;;;;;;;17.33;7.88;;;9.60;98.00;;;;;;4949663;28;20023;-87
2022/01/02 04:33:48;;;;;;;15.73;8.15;;;9.60;98.00;;;;;;4945697;28;20039;-87
2022/01/02 04:36:14;;;;;;;16.27;8.20;;;9.60;98.00;;;;;;4948644;28;20043;-87
2022/01/02 04:38:42;;;;;;;18.55;8.75;;;9.60;98.00;;;;;;4946152;29;20055;-87
2022/01/02 04:41:07;;;;;;;14.82;8.05;;;9.60;98.10;;;;;;4948702;28;20130;-87
2022/01/02 04:43:33;;;;;;;15.23;8.32;;;9.60;98.10;;;;;;4947325;28;20118;-87
2022/01/02 04:45:58;;;;;;;13.88;8.25;;;9.60;98.10;;;;;;4948934;28;20027;-87
2022/01/02 04:48:24;;;;;;;15.82;8.75;;;9.60;98.10;;;;;;4949739;28;20046;-87
2022/01/02 04:50:50;;;;;;;17.77;8.88;;;9.70;98.10;;;;;;4946224;28;20118;-87
2022/01/02 04:53:16;;;;;;;15.25;8.50;;;9.70;98.10;;;;;;4947236;28;20033;-87
2022/01/02 04:55:41;;;;;;;17.83;8.77;;;9.60;98.10;;;;;;4947711;29;20116;-87
2022/01/02 04:58:07;;;;;;;15.45;7.57;;;9.70;98.10;;;;;;4961297;28;20028;-87
2022/01/02 05:00:33;;;;;;;17.17;8.45;;;9.60;98.20;;;;;;4950449;29;20034;-87
2022/01/02 05:02:58;;;;;;;18.17;8.27;;;9.70;98.20;;;;;;4947070;28;20035;-87
2022/01/02 05:05:24;;;;;;;19.48;8.25;;;9.60;98.10;;;;;;4947265;29;20495;-87
2022/01/02 05:07:49;;;;;;;14.68;8.35;;;9.60;98.20;;;;;;4952634;29;20027;-88
2022/01/02 05:10:15;;;;;;;18.27;8.88;;;9.60;98.20;;;;;;4950140;28;20019;-87
2022/01/02 05:12:41;;;;;;;19.30;8.82;;;9.60;98.20;;;;;;4967100;28;20035;-87
2022/01/02 05:15:07;;;;;;;15.27;8.15;;;9.60;98.20;;;;;;4953436;28;20027;-87
2022/01/02 05:17:32;;;;;;;15.07;8.82;;;9.70;98.20;;;;;;4951082;29;20069;-87
2022/01/02 05:19:58;;;;;;;16.65;8.10;;;9.70;98.20;;;;;;4945621;28;20035;-86
2022/01/02 05:22:23;;;;;;;16.38;8.15;;;9.70;98.20;;;;;;4950723;29;20538;-86
2022/01/02 05:24:49;;;;;;;19.63;8.75;;;9.60;98.20;;;;;;4953498;28;20035;-86
2022/01/02 05:27:14;;;;;;;16.63;7.88;;;9.70;98.30;;;;;;4952712;29;20027;-86
2022/01/02 05:29:40;;;;;;;16.17;8.45;;;9.70;98.20;;;;;;4949653;29;20348;-86
2022/01/02 05:32:08;;;;;;;16.13;7.93;;;9.70;98.20;;;;;;4957413;28;20598;-86
2022/01/02 05:34:33;;;;;;;17.38;7.97;;;9.70;98.30;;;;;;4951334;29;20031;-86
2022/01/02 05:36:59;;;;;;;16.50;7.80;;;9.70;98.20;;;;;;4952789;28;20030;-86
2022/01/02 05:39:24;;;;;;;13.75;7.95;;;9.70;98.20;;;;;;4949541;28;20074;-86
2022/01/02 05:41:51;;;;;;;14.90;7.57;;;9.70;98.20;;;;;;4952482;29;20571;-86
2022/01/02 05:44:18;;;;;;;14.27;7.97;;;9.70;98.20;;;;;;4953022;28;20133;-86
2022/01/02 05:46:47;;;;;;;16.27;8.23;;;9.70;98.20;;;;;;4962613;28;21036;-86
2022/01/02 05:49:13;;;;;;;19.02;8.57;;;9.70;98.20;;;;;;4952475;28;20482;-86
2022/01/02 05:51:39;;;;;;;15.38;8.18;;;9.70;98.20;;;;;;4953232;28;20027;-86
2022/01/02 05:54:04;;;;;;;14.85;8.27;;;9.70;98.20;;;;;;4946571;28;20045;-86
2022/01/02 05:56:30;;;;;;;19.38;8.05;;;9.70;98.20;;;;;;4950598;28;20324;-86
2022/01/02 05:58:56;;;;;;;19.77;8.10;;;9.70;98.20;;;;;;4951176;28;20407;-86
2022/01/02 06:01:22;;;;;;;17.15;7.85;;;9.70;98.20;;;;;;4945161;29;20114;-86
2022/01/02 06:03:47;;;;;;;17.60;7.85;;;9.70;98.20;;;;;;4950581;29;20031;-86
2022/01/02 06:06:13;;;;;;;12.77;7.15;;;9.80;98.20;;;;;;4948128;28;20134;-86
2022/01/02 06:08:38;;;;;;;15.02;7.68;;;9.80;98.20;;;;;;4952055;28;20034;-86
2022/01/02 06:11:04;;;;;;;14.85;7.45;;;9.70;98.10;;;;;;4948174;28;20082;-86
2022/01/02 06:13:30;;;;;;;17.00;8.10;;;9.70;98.20;;;;;;4951273;28;20131;-86
2022/01/02 06:15:55;;;;;;;17.17;7.75;;;9.80;98.20;;;;;;4966654;28;20034;-86
2022/01/02 06:18:24;;;;;;;14.77;7.18;;;9.80;98.10;;;;;;4948747;28;20023;-87
2022/01/02 06:20:49;;;;;;;14.88;7.28;;;9.80;98.10;;;;;;4946403;29;20039;-86
2022/01/02 06:23:17;;;;;;;15.38;7.65;;;9.80;98.10;;;;;;4950001;28;20074;-86
2022/01/02 06:25:48;;;;;;;17.50;7.53;;;9.80;98.20;;;;;;4947234;29;20023;-86
2022/01/02 06:28:13;;;;;;;17.23;7.32;;;9.80;98.20;;;;;;4953051;29;20027;-86
2022/01/02 06:30:39;;;;;;;19.10;7.38;;;9.80;98.10;;;;;;4952749;28;20035;-85
2022/01/02 06:33:05;;;;;;;18.23;7.80;;;9.80;98.20;;;;;;4950538;29;20031;-86
2022/01/02 06:35:32;;;;;;;16.75;7.30;;;9.80;98.10;;;;;;4950066;28;20039;-86
2022/01/02 06:37:59;;;;;;;15.27;7.10;;;9.80;98.20;;;;;;4951356;28;20031;-86
2022/01/02 06:40:26;;;;;;;14.15;6.97;;;9.90;98.20;;;;;;4953340;29;20380;-86
2022/01/02 06:42:52;;;;;;;19.10;7.38;;;9.90;98.20;;;;;;4945150;28;20460;-86
2022/01/02 06:45:18;;;;;;;14.48;7.15;;;10.00;98.20;;;;;;4951715;28;20106;-86
2022/01/02 06:47:44;;;;;;;15.60;8.00;;;10.10;98.10;;;;;;4950273;28;20055;-86
2022/01/02 06:50:11;;;;;;;15.75;6.85;;;10.10;98.00;;;;;;4941376;29;20432;-86
2022/01/02 06:52:38;;;;;;;17.75;7.15;;;10.10;98.00;;;;;;4949511;28;20028;-86
2022/01/02 06:55:04;;;;;;;16.77;6.93;;;10.20;97.90;;;;;;4950538;29;20027;-86
2022/01/02 06:57:30;;;;;;;21.80;7.65;;;10.30;97.80;;;;;;4949910;28;20023;-86
2022/01/02 06:59:55;;;;;;;13.88;6.25;;;10.30;97.80;;;;;;4951416;28;20036;-86
2022/01/02 07:02:21;;;;;;;21.95;6.82;;;10.30;97.80;;;;;;4951168;28;20023;-86
2022/01/02 07:04:46;;;;;;;12.55;5.88;;;10.30;97.70;;;;;;4947214;28;20117;-86
2022/01/02 07:07:12;;;;;;;16.33;6.20;;;10.30;97.70;;;;;;4950101;29;20031;-86
2022/01/02 07:09:37;;;;;;;16.73;5.85;;;10.40;97.70;;;;;;4947673;28;20031;-86
2022/01/02 07:12:03;;;;;;;17.58;5.93;;;10.40;97.70;;;;;;4951764;28;20046;-86
2022/01/02 07:14:30;;;;;;;14.27;5.35;;;10.40;97.60;;;;;;4950650;28;20027;-86
2022/01/02 07:16:57;;;;;;;22.42;6.60;;;10.50;97.70;;;;;;4949898;29;20023;-86
2022/01/02 07:19:23;;;;;;;16.27;6.78;;;10.50;97.60;;;;;;4948901;28;20514;-86
2022/01/02 07:21:49;;;;;;;14.15;5.70;;;10.50;97.60;;;;;;4948368;28;20019;-86
2022/01/02 07:24:15;;;;;;;16.48;5.75;;;10.50;97.70;;;;;;4944584;28;20038;-86
2022/01/02 07:26:40;;;;;;;16.48;6.07;;;10.50;97.70;;;;;;4948927;28;20023;-86
2022/01/02 07:29:06;;;;;;;16.55;5.45;;;10.50;97.70;;;;;;4947236;28;20464;-86
2022/01/02 07:31:31;;;;;;;20.90;6.40;;;10.60;97.80;;;;;;4950417;28;20016;-86
2022/01/02 07:33:57;;;;;;;14.25;5.88;;;10.60;97.70;;;;;;4947357;28;20027;-87
2022/01/02 07:36:22;;;;;;;12.00;5.10;;;10.60;97.70;;;;;;4946499;28;20023;-87
2022/01/02 07:38:51;;;;;;;15.90;5.55;;;10.70;97.80;;;;;;4950624;28;20023;-86
2022/01/02 07:41:17;;;;;;;14.50;5.93;;;10.70;97.70;;;;;;4952499;28;20034;-87
2022/01/02 07:43:43;;;;;;;14.10;5.32;;;10.80;97.80;;;;;;4949123;28;20487;-86
2022/01/02 07:46:08;;;;;;;14.23;5.55;;;10.80;97.70;;;;;;4949854;28;20055;-86
2022/01/02 07:48:34;;;;;;;17.80;5.70;;;10.80;97.60;;;;;;4949175;28;20566;-86
2022/01/02 07:50:59;;;;;;;15.02;5.05;;;10.80;97.70;;;;;;4948677;28;20054;-86
2022/01/02 07:53:25;;;;;;;13.43;4.95;;;10.90;97.70;;;;;;4948766;28;20101;-86
2022/01/02 07:55:51;;;;;;;17.13;5.25;;;10.90;97.70;;;;;;4950258;29;20058;-86
2022/01/02 07:58:16;;;;;;;18.40;4.63;;;11.00;97.70;;;;;;4948553;28;20023;-87
2022/01/02 08:00:42;;;;;;;16.42;4.15;;;11.00;97.70;;;;;;4951703;28;20031;-87
2022/01/02 08:03:08;;;;;;;12.40;4.75;;;11.00;97.70;;;;;;4949624;29;20484;-86
2022/01/02 08:05:34;;;;;;;12.82;5.05;;;11.10;97.60;;;;;;4947377;28;20602;-86
2022/01/02 08:07:59;;;;;;;11.68;4.40;;;11.10;97.60;;;;;;4950591;28;20055;-86
2022/01/02 08:10:27;;;;;;;8.75;4.20;;;11.10;97.50;;;;;;4959510;28;20057;-86
2022/01/02 08:12:53;;;;;;;12.35;4.10;;;11.20;97.40;;;;;;4944882;29;20038;-86
2022/01/02 08:15:19;;;;;;;14.73;4.35;;;11.20;97.10;;;;;;4946642;29;20039;-87
2022/01/02 08:17:44;;;;;;;12.70;4.35;;;11.20;97.10;;;;;;4949970;28;20027;-87
2022/01/02 08:20:10;;;;;;;11.63;4.45;;;11.30;97.10;;;;;;4947244;29;20042;-86
2022/01/02 08:22:36;;;;;;;13.18;4.50;;;11.20;97.10;;;;;;4949467;28;20207;-87
2022/01/02 08:25:03;;;;;;;11.98;4.10;;;11.30;97.10;;;;;;4946400;28;20024;-87
2022/01/02 08:27:29;;;;;;;13.63;4.75;;;11.40;96.80;;;;;;4963833;28;20063;-87
2022/01/02 08:29:55;;;;;;;15.52;4.40;;;11.30;96.80;;;;;;4947529;29;20071;-87
2022/01/02 08:32:20;;;;;;;15.30;4.72;;;11.30;96.80;;;;;;4905088;28;20027;-87
2022/01/02 08:34:46;;;;;;;11.88;4.70;;;11.30;96.60;;;;;;4944897;28;20027;-88
2022/01/02 08:37:14;;;;;;;9.68;4.78;;;11.30;96.60;;;;;;4950358;28;20510;-88
2022/01/02 08:39:46;;;;;;;10.50;4.50;;;11.30;96.70;;;;;;4942635;29;20447;-88
2022/01/02 08:42:13;;;;;;;14.20;4.65;;;11.30;96.60;;;;;;4948538;29;20030;-88
2022/01/02 08:44:39;;;;;;;11.35;4.93;;;11.30;96.50;;;;;;4950912;28;20030;-87
2022/01/02 08:47:08;;;;;;;7.88;4.15;;;11.40;96.20;;;;;;4946263;28;20040;-88
2022/01/02 08:49:33;;;;;;;15.60;4.47;;;11.30;96.20;;;;;;4943304;29;20756;-88
2022/01/02 08:51:59;;;;;;;11.90;4.28;;;11.30;96.30;;;;;;4948252;29;20142;-88
2022/01/02 08:54:25;;;;;;;12.70;4.82;;;11.30;96.20;;;;;;4964539;28;20027;-87
2022/01/02 08:56:51;;;;;;;13.13;4.22;;;11.30;96.20;;;;;;4950353;28;20093;-88
2022/01/02 08:59:17;;;;;;;13.65;4.68;;;11.30;96.20;;;;;;4948117;29;20395;-88
2022/01/02 09:01:43;;;;;;;12.77;4.30;;;11.30;96.30;;;;;;4950180;29;20023;-87
2022/01/02 09:04:09;;;;;;;15.15;3.92;;;11.30;96.40;;;;;;4945631;28;20030;-88
2022/01/02 09:06:35;;;;;;;13.57;3.92;;;11.30;96.20;;;;;;4945883;28;20479;-87
2022/01/02 09:09:01;;;;;;;13.15;3.63;;;11.30;95.90;;;;;;4946007;28;20039;-87
2022/01/02 09:11:33;;;;;;;11.75;4.35;;;11.30;95.90;;;;;;4947769;28;20024;-87
2022/01/02 09:14:02;;;;;;;13.73;4.63;;;11.20;96.00;;;;;;4949768;28;20098;-88
2022/01/02 09:16:31;;;;;;;12.23;4.30;;;11.20;96.20;;;;;;4949070;28;20169;-87
2022/01/02 09:18:58;;;;;;;12.13;4.38;;;11.20;96.20;;;;;;4944371;28;20054;-87
2022/01/02 09:21:24;;;;;;;14.50;4.20;;;11.20;96.10;;;;;;4945269;28;20039;-87
2022/01/02 09:23:49;;;;;;;14.20;4.25;;;11.20;96.10;;;;;;4944928;28;20031;-87
2022/01/02 09:26:15;;;;;;;11.93;4.30;;;11.20;96.00;;;;;;4948665;28;20042;-87
2022/01/02 09:28:40;;;;;;;12.80;3.92;;;11.20;95.90;;;;;;4949008;28;20030;-87
2022/01/02 09:31:06;;;;;;;11.30;3.83;;;11.20;95.80;;;;;;4947258;29;20404;-87
2022/01/02 09:33:32;;;;;;;18.67;5.07;;;11.20;95.90;;;;;;4958156;28;20112;-88
2022/01/02 09:35:57;;;;;;;11.38;4.22;;;11.20;96.00;;;;;;4947213;29;20033;-88
2022/01/02 09:38:23;;;;;;;12.80;4.03;;;11.20;95.90;;;;;;4947316;28;20027;-90
2022/01/02 09:40:53;;;;;;;9.57;4.60;;;11.20;95.90;;;;;;4942774;29;20036;-90
2022/01/02 09:43:19;;;;;;;12.47;4.33;;;11.10;96.00;;;;;;4941649;28;20038;-90
2022/01/02 09:45:46;;;;;;;11.55;4.03;;;11.10;96.30;;;;;;4944712;28;20450;-90
2022/01/02 09:48:12;;;;;;;9.45;4.18;;;11.10;96.30;;;;;;4945810;28;20043;-89
2022/01/02 09:50:39;;;;;;;12.93;4.72;;;11.10;96.10;;;;;;4947926;28;20380;-87
2022/01/02 09:53:06;;;;;;;11.38;4.47;;;11.20;96.00;;;;;;4946926;28;20506;-87
2022/01/02 09:55:32;;;;;;;10.65;4.30;;;11.10;96.00;;;;;;4945599;29;20040;-88
2022/01/02 09:58:03;;;;;;;9.93;4.07;;;11.10;96.20;;;;;;4953296;28;20046;-89
2022/01/02 10:00:29;;;;;;;9.85;4.00;;;11.20;96.10;;;;;;4951771;28;20027;-89
2022/01/02 10:03:00;;;;;;;10.55;3.92;;;11.20;96.00;;;;;;4945572;28;20369;-89
2022/01/02 10:05:27;;;;;;;7.53;3.72;;;11.10;96.20;;;;;;4944602;29;20094;-87
2022/01/02 10:07:54;;;;;;;7.65;4.05;;;11.10;96.40;;;;;;4947698;29;20027;-87
2022/01/02 10:10:32;;;;;;;11.18;4.25;;;11.10;96.50;;;;;;4944232;28;20612;-85
2022/01/02 10:13:03;;;;;;;6.72;3.50;;;11.10;96.60;;;;;;4950054;29;20070;-86
2022/01/02 10:15:31;;;;;;;15.70;4.72;;;11.10;96.30;;;;;;4948118;28;20035;-86
2022/01/02 10:17:58;;;;;;;12.88;4.40;;;11.20;96.30;;;;;;4949042;29;20126;-86
2022/01/02 10:20:34;;;;;;;11.35;4.43;;;11.10;96.30;;;;;;4946874;28;20033;-86
2022/01/02 10:23:24;;;;;;;13.23;3.88;;;11.10;96.50;;;;;;4950810;29;20039;-86
2022/01/02 10:25:56;;;;;;;13.55;4.60;;;11.10;96.60;;;;;;4946598;28;20106;-87
2022/01/02 10:28:26;;;;;;;8.05;3.67;;;11.10;96.60;;;;;;4951167;28;20034;-86
2022/01/02 10:31:00;;;;;;;14.43;3.95;;;11.10;96.50;;;;;;4947173;29;20023;-86
2022/01/02 10:33:29;;;;;;;11.93;4.00;;;11.10;96.40;;;;;;4939607;28;20111;-86
2022/01/02 10:36:00;;;;;;;10.93;3.95;;;11.10;96.30;;;;;;4944764;28;20067;-86
2022/01/02 10:38:27;;;;;;;9.93;3.92;;;11.10;96.40;;;;;;4947327;29;20102;-87
2022/01/02 10:40:52;;;;;;;11.70;3.63;;;11.20;96.30;;;;;;4950703;28;20411;-85
2022/01/02 10:43:30;;;;;;;12.85;3.78;;;11.30;95.90;;;;;;4945481;28;20016;-86
2022/01/02 10:46:16;;;;;;;10.20;3.83;;;11.40;95.70;;;;;;4947965;29;20019;-86
2022/01/02 10:48:42;;;;;;;7.95;3.67;;;11.40;95.70;;;;;;4950895;29;20039;-86
2022/01/02 10:51:15;;;;;;;8.77;3.13;;;11.50;95.10;;;;;;4947233;28;20095;-87
2022/01/02 10:53:59;;;;;;;9.48;3.70;;;11.50;95.30;;;;;;4951108;29;20023;-86
2022/01/02 10:56:27;;;;;;;8.48;3.17;;;11.50;95.30;;;;;;4949765;29;20027;-86
2022/01/02 10:58:54;;;;;;;10.80;4.00;;;11.50;95.20;;;;;;4951644;29;20034;-86
2022/01/02 11:01:20;;;;;;;12.52;3.45;;;11.50;95.20;;;;;;4952134;28;20102;-86
2022/01/02 11:03:47;;;;;;;8.57;3.55;;;11.50;95.00;;;;;;4950683;29;20031;-87
2022/01/02 11:06:26;;;;;;;8.48;3.55;;;11.50;94.80;;;;;;4948224;28;20408;-87
2022/01/02 11:08:55;;;;;;;8.90;3.25;;;11.50;94.80;;;;;;4964235;28;20036;-87
2022/01/02 11:11:21;;;;;;;11.65;2.92;;;11.60;94.60;;;;;;4945050;28;20031;-87
2022/01/02 11:13:50;;;;;;;8.43;3.40;;;11.60;94.70;;;;;;4949753;28;20032;-87
2022/01/02 11:16:19;;;;;;;8.25;3.38;;;11.70;94.50;;;;;;4962402;28;20023;-87
2022/01/02 11:18:47;;;;;;;8.20;3.40;;;11.70;94.50;;;;;;4948729;28;20127;-87
2022/01/02 11:21:13;;;;;;;8.32;3.20;;;11.60;94.40;;;;;;4945808;29;20019;-87
2022/01/02 11:24:08;;;;;;;8.50;3.35;;;11.60;94.50;;;;;;4946212;28;20033;-86
2022/01/02 11:26:46;;;;;;;7.65;3.90;;;11.60;94.70;;;;;;4943371;28;20043;-87
2022/01/02 11:29:11;;;;;;;9.65;3.30;;;11.50;95.10;;;;;;4963270;28;20054;-86
2022/01/02 11:31:40;;;;;;;11.02;3.80;;;11.50;95.30;;;;;;4950201;28;20034;-87
2022/01/02 11:34:27;;;;;;;8.38;3.15;;;11.50;95.10;;;;;;4945069;28;20031;-86
2022/01/02 11:37:20;;;;;;;6.80;3.10;;;11.50;95.20;;;;;;4946916;28;20066;-86
2022/01/02 11:39:53;;;;;;;10.52;3.63;;;11.50;95.40;;;;;;4945867;29;20043;-86
2022/01/02 11:42:42;;;;;;;9.02;3.97;;;11.50;95.30;;;;;;4948497;29;20019;-86
2022/01/02 11:45:09;;;;;;;10.63;3.83;;;11.40;95.50;;;;;;4947255;28;20055;-86
2022/01/02 11:47:47;;;;;;;9.05;3.80;;;11.40;95.30;;;;;;4946939;28;20042;-86
2022/01/02 11:50:31;;;;;;;9.60;3.70;;;11.50;95.10;;;;;;4943253;29;20028;-87
2022/01/02 11:53:23;;;;;;;9.32;3.55;;;11.40;95.20;;;;;;4949187;29;20062;-87
2022/01/02 11:55:50;;;;;;;12.15;3.40;;;11.50;95.10;;;;;;4947930;29;20042;-86
2022/01/02 11:58:38;;;;;;;12.60;3.72;;;11.50;95.00;;;;;;4946579;28;20081;-86
2022/01/02 12:01:04;;;;;;;7.55;3.22;;;11.50;94.80;;;;;;4962751;28;20384;-87
2022/01/02 12:03:42;;;;;;;8.18;3.35;;;11.60;94.60;;;;;;4948420;29;20038;-87
2022/01/02 12:06:23;;;;;;;6.78;2.95;;;11.70;93.70;;;;;;4948729;28;20478;-87
2022/01/02 12:08:53;;;;;;;13.25;3.40;;;11.60;93.80;;;;;;4951541;28;20035;-87
2022/01/02 12:11:31;;;;;;;7.72;2.78;;;11.60;93.70;;;;;;4947642;29;20031;-87
2022/01/02 12:14:05;;;;;;;14.13;3.40;;;11.80;93.20;;;;;;4945812;28;20038;-87
2022/01/02 12:16:39;;;;;;;11.68;3.30;;;11.90;92.30;;;;;;4953005;28;20027;-87
2022/01/02 12:19:08;;;;;;;14.18;3.88;;;11.90;92.90;;;;;;4951770;29;20114;-87
2022/01/02 12:21:33;;;;;;;11.45;3.22;;;11.80;93.10;;;;;;4950948;28;20032;-87
2022/01/02 12:24:02;;;;;;;10.05;3.15;;;11.80;93.00;;;;;;4947000;29;20046;-87
2022/01/02 12:26:39;;;;;;;9.80;3.28;;;11.90;92.40;;;;;;4941568;28;20117;-87
2022/01/02 12:29:10;;;;;;;9.27;3.17;;;12.10;92.00;;;;;;4949547;29;20027;-87
2022/01/02 12:31:38;;;;;;;10.23;3.22;;;12.00;91.80;;;;;;4950088;28;20023;-87
2022/01/02 12:34:23;;;;;;;13.60;3.50;;;12.00;91.80;;;;;;4943826;28;20031;-86
2022/01/02 12:36:50;;;;;;;15.23;4.03;;;12.00;92.10;;;;;;4958538;28;20023;-86
2022/01/02 12:39:25;;;;;;;10.75;3.63;;;12.00;92.20;;;;;;4950541;28;20411;-87
2022/01/02 12:41:50;;;;;;;7.57;2.92;;;12.00;91.90;;;;;;4946887;28;20110;-86
2022/01/02 12:44:28;;;;;;;9.70;2.80;;;12.00;92.10;;;;;;4950145;28;20058;-87
2022/01/02 12:46:55;;;;;;;10.23;3.33;;;12.00;91.50;;;;;;4949799;29;20114;-87
2022/01/02 12:49:36;;;;;;;11.07;3.60;;;12.00;91.50;;;;;;4946499;29;20031;-87
2022/01/02 12:52:23;;;;;;;14.45;3.58;;;12.00;91.20;;;;;;4943321;29;20059;-86
2022/01/02 12:54:50;;;;;;;13.95;3.65;;;12.00;91.20;;;;;;4946329;29;20122;-86